Time;durP1;ratioP1;P1;durP2;ratioP2;P2;SDS_P1;SDS_P2;PMS_P1;PMS_P2;Temp;Humidity;BMP_temperature;BMP_pressure;BME280_temperature;BME280_humidity;BME280_pressure;Samples;Min_cycle;Max_cycle;Signal;HPM_P1;HPM_P2
2021/05/06 00:14:29;;;;;;;;;;;;;;;12.62;85.80;100628.08;1741526;82;21360;-75
2021/05/06 00:33:26;;;;;;;;;;;;;;;12.55;87.09;100619.06;1741181;82;20273;-78
2021/05/06 00:35:54;;;;;;;;;;;;;;;12.54;87.37;100617.89;1741414;82;20242;-77
2021/05/06 00:38:24;;;;;;;;;;;;;;;12.54;87.62;100617.89;1741351;82;21273;-73
2021/05/06 00:54:24;;;;;;;;;;;;;;;12.52;88.03;100611.95;1718940;83;20227;-74
2021/05/06 01:07:25;;;;;;;;;;;;;;;12.47;88.41;100610.17;1718584;83;20253;-76
2021/05/06 01:09:53;;;;;;;;;;;;;;;12.47;88.40;100599.77;1735266;82;20134;-75
2021/05/06 01:12:18;;;;;;;;;;;;;;;12.45;88.45;100601.17;1737906;82;20489;-82
2021/05/06 01:18:16;;;;;;;;;;;;;;;12.44;88.56;100595.63;1738408;82;21390;-75
2021/05/06 01:20:46;;;;;;;;;;;;;;;12.43;88.65;100595.72;1738307;82;20290;-76
2021/05/06 01:23:16;;;;;;;;;;;;;;;12.42;88.80;100593.59;1738605;82;20228;-80
2021/05/06 01:25:51;;;;;;;;;;;;;;;12.40;88.84;100587.68;1710820;82;20155;-77
2021/05/06 01:28:19;;;;;;;;;;;;;;;12.41;88.96;100582.01;1738067;82;20241;-75
2021/05/06 01:31:03;;;;;;;;;;;;;;;12.40;89.04;100581.17;1738586;82;21211;-77
2021/05/06 01:36:21;;;;;;;;;;;;;;;12.41;89.21;100586.72;1738517;82;20575;-78
2021/05/06 01:38:59;;;;;;;;;;;;;;;12.40;89.19;100580.34;1738566;82;20908;-73
2021/05/06 01:47:52;;;;;;;;;;;;;;;12.40;89.45;100577.73;1703588;82;20257;-77
2021/05/06 01:49:48;;;;;;;;;;;;;;;12.39;89.45;100577.38;1719014;82;20529;-80
2021/05/06 01:57:46;;;;;;;;;;;;;;;12.35;89.84;100576.77;1738296;82;21217;-77
2021/05/06 02:00:16;;;;;;;;;;;;;;;12.32;89.93;100577.00;1736906;82;20219;-76
2021/05/06 02:02:43;;;;;;;;;;;;;;;12.32;90.01;100570.49;1732570;82;20141;-76
2021/05/06 02:05:13;;;;;;;;;;;;;;;12.31;90.28;100575.36;1702841;83;20241;-73
2021/05/06 02:07:42;;;;;;;;;;;;;;;12.31;90.51;100570.62;1725354;83;20306;-73
2021/05/06 02:10:13;;;;;;;;;;;;;;;12.31;90.80;100566.72;1725392;83;21258;-73
2021/05/06 02:12:44;;;;;;;;;;;;;;;12.31;91.06;100566.72;1725104;83;20235;-73
2021/05/06 02:15:17;;;;;;;;;;;;;;;12.30;91.26;100572.39;1725608;83;20319;-76
2021/05/06 02:17:44;;;;;;;;;;;;;;;12.29;91.54;100574.62;1725306;83;20230;-73
2021/05/06 02:20:13;;;;;;;;;;;;;;;12.31;91.79;100571.92;1725473;83;20306;-76
2021/05/06 02:22:41;;;;;;;;;;;;;;;12.31;91.99;100567.55;1725408;83;21214;-74
2021/05/06 02:25:11;;;;;;;;;;;;;;;12.32;92.11;100579.59;1725365;83;20236;-75
2021/05/06 02:27:39;;;;;;;;;;;;;;;12.33;92.33;100577.36;1725433;83;20405;-74
2021/05/06 02:30:08;;;;;;;;;;;;;;;12.33;92.67;100573.46;1725429;83;20826;-74
2021/05/06 02:32:36;;;;;;;;;;;;;;;12.35;92.81;100572.06;1725425;83;20234;-77
2021/05/06 02:35:05;;;;;;;;;;;;;;;12.36;92.94;100575.00;1725628;83;20690;-73
2021/05/06 02:37:33;;;;;;;;;;;;;;;12.37;93.01;100572.77;1725359;83;20135;-73
2021/05/06 02:40:01;;;;;;;;;;;;;;;12.38;93.09;100574.44;1725772;83;20486;-76
2021/05/06 02:42:29;;;;;;;;;;;;;;;12.39;93.20;100581.27;1725622;83;20143;-79
2021/05/06 02:44:57;;;;;;;;;;;;;;;12.40;93.25;100579.87;1725728;83;20128;-77
2021/05/06 02:47:25;;;;;;;;;;;;;;;12.41;93.32;100576.80;1725851;83;21372;-72
2021/05/06 02:49:53;;;;;;;;;;;;;;;12.42;93.39;100577.97;1725964;83;20155;-77
2021/05/06 03:03:05;;;;;;;;;;;;;;;12.45;93.91;100579.52;1731179;82;20250;-75
2021/05/06 03:05:36;;;;;;;;;;;;;;;12.45;93.98;100584.25;1738528;82;20496;-80
2021/05/06 03:08:18;;;;;;;;;;;;;;;12.46;94.13;100586.39;1738219;82;20536;-71
2021/05/06 03:10:53;;;;;;;;;;;;;;;12.47;94.27;100582.84;1738366;82;20160;-77
2021/05/06 03:22:41;;;;;;;;;;;;;;;12.49;94.67;100604.38;1738386;82;20369;-76
2021/05/06 03:24:03;;;;;;;;;;;;;;;12.49;94.95;100610.88;1734557;82;20484;-73
2021/05/06 03:26:33;;;;;;;;;;;;;;;12.48;95.11;100612.65;1738358;82;22271;-75
2021/05/06 03:29:06;;;;;;;;;;;;;;;12.47;95.09;100612.31;1738279;82;20656;-76
2021/05/06 03:42:47;;;;;;;;;;;;;;;12.47;95.56;100635.73;1734272;82;20163;-77
2021/05/06 03:48:39;;;;;;;;;;;;;;;12.48;95.77;100643.05;1738237;82;20159;-71
2021/05/06 04:13:15;;;;;;;;;;;;;;;12.58;96.43;100662.25;1738434;82;20246;-77
2021/05/06 04:18:05;;;;;;;;;;;;;;;12.66;96.58;100652.95;1715538;83;20228;-77
2021/05/06 04:26:04;;;;;;;;;;;;;;;12.91;96.43;100653.23;1738429;82;20528;-75
2021/05/06 04:38:59;;;;;;;;;;;;;;;13.40;94.67;100652.91;1698583;82;20547;-77
2021/05/06 04:41:58;;;;;;;;;;;;;;;13.52;94.21;100651.98;1738419;82;20296;-74
2021/05/06 04:44:34;;;;;;;;;;;;;;;13.64;93.57;100653.62;1731058;82;20301;-76
2021/05/06 04:54:35;;;;;;;;;;;;;;;13.86;91.91;100668.39;1738430;82;20219;-80
2021/05/06 05:05:06;;;;;;;;;;;;;;;13.74;91.95;100718.92;1738743;82;20219;-76
2021/05/06 05:07:38;;;;;;;;;;;;;;;13.73;92.02;100716.78;1738650;82;20763;-73
2021/05/06 05:21:15;;;;;;;;;;;;;;;14.12;89.07;100731.55;1738749;82;20247;-77
2021/05/06 05:23:30;;;;;;;;;;;;;;;14.16;87.68;100723.84;1733682;82;20484;-74
2021/05/06 05:26:03;;;;;;;;;;;;;;;14.18;86.78;100729.75;1737859;82;22323;-73
2021/05/06 05:28:27;;;;;;;;;;;;;;;14.18;86.67;100729.28;1737193;82;20262;-75
2021/05/06 05:30:55;;;;;;;;;;;;;;;14.20;86.19;100729.14;1738354;82;20224;-77
2021/05/06 05:33:24;;;;;;;;;;;;;;;14.20;85.92;100726.06;1738434;82;20242;-77
2021/05/06 05:43:40;;;;;;;;;;;;;;;14.23;84.59;100718.48;1738565;82;20505;-76
2021/05/06 05:54:49;;;;;;;;;;;;;;;14.57;82.82;100727.05;1738208;82;20329;-73
2021/05/06 05:56:40;;;;;;;;;;;;;;;14.67;82.46;100744.94;1723780;82;20254;-74
2021/05/06 05:59:08;;;;;;;;;;;;;;;14.82;82.16;100735.84;1738293;82;20794;-73
2021/05/06 06:01:36;;;;;;;;;;;;;;;15.01;81.73;100737.76;1738440;82;20643;-72
2021/05/06 06:04:05;;;;;;;;;;;;;;;15.16;81.08;100734.69;1738517;82;21229;-76
2021/05/06 06:06:35;;;;;;;;;;;;;;;15.28;80.56;100723.19;1739283;82;20679;-74
2021/05/06 06:09:06;;;;;;;;;;;;;;;15.41;79.14;100721.70;1739276;82;20500;-75
2021/05/06 06:11:35;;;;;;;;;;;;;;;15.50;77.71;100713.10;1716095;82;21208;-74
2021/05/06 06:14:07;;;;;;;;;;;;;;;15.61;76.35;100716.92;1711060;83;20232;-75
2021/05/06 06:16:38;;;;;;;;;;;;;;;15.76;75.14;100722.63;1748149;82;22267;-74
2021/05/06 06:19:11;;;;;;;;;;;;;;;15.96;74.18;100720.40;1748412;82;20209;-79
2021/05/06 06:21:47;;;;;;;;;;;;;;;16.17;73.42;100731.63;1748283;82;20297;-77
2021/05/06 06:24:12;;;;;;;;;;;;;;;16.34;71.57;100735.34;1747960;82;20293;-75
2021/05/06 06:26:41;;;;;;;;;;;;;;;16.41;70.46;100737.77;1748594;82;20272;-77
2021/05/06 06:29:13;;;;;;;;;;;;;;;16.51;69.49;100746.95;1748504;82;22007;-76
2021/05/06 06:31:44;;;;;;;;;;;;;;;16.59;68.96;100740.59;1748237;82;20151;-75
2021/05/06 06:34:11;;;;;;;;;;;;;;;16.71;68.66;100747.34;1748348;82;20226;-74
2021/05/06 06:36:45;;;;;;;;;;;;;;;16.76;68.69;100753.81;1747805;82;20332;-74
2021/05/06 06:39:15;;;;;;;;;;;;;;;16.79;69.52;100747.45;1747832;82;20504;-75
2021/05/06 06:41:44;;;;;;;;;;;;;;;16.82;69.55;100747.18;1748606;82;21142;-77
2021/05/06 06:44:14;;;;;;;;;;;;;;;16.84;68.92;100747.89;1748332;82;21223;-77
2021/05/06 06:46:42;;;;;;;;;;;;;;;16.84;68.07;100761.83;1748391;82;20249;-76
2021/05/06 06:49:11;;;;;;;;;;;;;;;16.84;67.57;100765.76;1749183;82;20304;-76
2021/05/06 06:51:41;;;;;;;;;;;;;;;16.85;66.98;100762.15;1749108;82;20480;-76
2021/05/06 06:54:13;;;;;;;;;;;;;;;16.90;66.71;100755.19;1748655;82;21212;-77
2021/05/06 06:56:41;;;;;;;;;;;;;;;17.00;66.70;100753.88;1748251;82;20246;-74
2021/05/06 06:59:09;;;;;;;;;;;;;;;17.12;66.27;100767.16;1748443;82;20428;-74
2021/05/06 07:01:38;;;;;;;;;;;;;;;17.17;65.69;100770.18;1748049;82;20607;-75
2021/05/06 07:04:06;;;;;;;;;;;;;;;17.21;65.61;100771.08;1747842;82;20234;-77
2021/05/06 07:06:35;;;;;;;;;;;;;;;17.30;65.40;100768.09;1747735;82;21674;-75
2021/05/06 07:09:05;;;;;;;;;;;;;;;17.37;64.41;100767.88;1747816;82;20230;-76
2021/05/06 07:11:33;;;;;;;;;;;;;;;17.41;64.08;100774.02;1747947;82;20620;-76
2021/05/06 07:14:03;;;;;;;;;;;;;;;17.57;64.15;100763.43;1747815;82;20436;-80
2021/05/06 07:16:31;;;;;;;;;;;;;;;17.85;63.83;100774.30;1748370;82;20302;-74
2021/05/06 07:18:59;;;;;;;;;;;;;;;18.05;62.46;100773.72;1748163;82;22122;-77
2021/05/06 07:21:28;;;;;;;;;;;;;;;18.20;61.77;100774.39;1747854;82;20231;-76
2021/05/06 07:23:56;;;;;;;;;;;;;;;18.20;60.32;100782.75;1748118;82;20138;-76
2021/05/06 07:26:26;;;;;;;;;;;;;;;18.22;60.51;100786.08;1747879;82;20835;-75
2021/05/06 07:28:57;;;;;;;;;;;;;;;18.25;60.05;100790.52;1747834;82;20226;-76
2021/05/06 07:31:29;;;;;;;;;;;;;;;18.40;60.43;100790.87;1747499;82;22280;-77
2021/05/06 07:33:59;;;;;;;;;;;;;;;18.58;59.51;100796.16;1747932;82;20139;-74
2021/05/06 07:36:28;;;;;;;;;;;;;;;18.67;59.07;100792.14;1747605;82;20237;-75
2021/05/06 07:38:59;;;;;;;;;;;;;;;18.74;59.11;100785.80;1747940;82;20489;-76
2021/05/06 07:41:29;;;;;;;;;;;;;;;18.83;58.95;100786.20;1748024;82;20158;-74
2021/05/06 07:43:58;;;;;;;;;;;;;;;18.90;59.22;100784.15;1748218;82;21237;-80
2021/05/06 07:46:28;;;;;;;;;;;;;;;19.05;59.10;100782.30;1747767;82;20719;-76
2021/05/06 07:48:58;;;;;;;;;;;;;;;19.04;59.11;100788.05;1748132;82;20142;-75
2021/05/06 07:51:28;;;;;;;;;;;;;;;19.05;58.46;100791.52;1747595;82;20231;-73
2021/05/06 07:54:05;;;;;;;;;;;;;;;19.05;58.89;100788.88;1747645;82;20226;-73
2021/05/06 07:56:30;;;;;;;;;;;;;;;19.09;58.62;100780.52;1747584;82;20944;-76
2021/05/06 07:58:58;;;;;;;;;;;;;;;19.10;58.10;100778.72;1747959;82;20254;-76
2021/05/06 08:01:27;;;;;;;;;;;;;;;19.14;57.84;100787.48;1747832;82;20492;-75
2021/05/06 08:03:57;;;;;;;;;;;;;;;19.24;57.57;100793.95;1746651;82;20950;-74
2021/05/06 08:06:25;;;;;;;;;;;;;;;19.37;57.48;100794.35;1735283;82;20505;-77
2021/05/06 08:08:55;;;;;;;;;;;;;;;19.52;57.73;100795.01;1735319;82;21453;-78
2021/05/06 08:11:23;;;;;;;;;;;;;;;19.63;57.41;100793.89;1735081;82;20507;-76
2021/05/06 08:13:55;;;;;;;;;;;;;;;19.74;57.53;100785.74;1734943;82;20291;-75
2021/05/06 08:16:25;;;;;;;;;;;;;;;19.86;57.47;100788.42;1735033;82;20222;-74
2021/05/06 08:18:53;;;;;;;;;;;;;;;19.98;57.12;100795.55;1735349;82;20226;-76
2021/05/06 08:21:21;;;;;;;;;;;;;;;19.94;56.84;100804.25;1734967;82;21155;-75
2021/05/06 08:23:50;;;;;;;;;;;;;;;19.82;57.13;100804.20;1734733;82;20597;-74
2021/05/06 08:26:20;;;;;;;;;;;;;;;19.75;57.47;100808.44;1735074;82;20227;-76
2021/05/06 08:28:50;;;;;;;;;;;;;;;19.61;57.69;100810.84;1734913;82;20242;-77
2021/05/06 08:31:17;;;;;;;;;;;;;;;19.40;58.33;100811.21;1735028;82;20293;-77
2021/05/06 08:33:45;;;;;;;;;;;;;;;19.30;58.40;100811.28;1734910;82;21360;-76
2021/05/06 08:36:13;;;;;;;;;;;;;;;19.24;59.17;100806.59;1735095;82;20713;-75
2021/05/06 08:38:43;;;;;;;;;;;;;;;19.26;60.13;100820.45;1734394;82;20493;-76
2021/05/06 08:41:14;;;;;;;;;;;;;;;19.41;60.35;100813.67;1735018;82;20234;-80
2021/05/06 08:43:45;;;;;;;;;;;;;;;19.58;59.05;100822.99;1735946;82;20226;-77
2021/05/06 08:46:12;;;;;;;;;;;;;;;19.75;58.89;100824.75;1736696;82;22111;-75
2021/05/06 08:48:43;;;;;;;;;;;;;;;19.87;58.27;100820.86;1732799;82;20247;-76
2021/05/06 08:51:15;;;;;;;;;;;;;;;19.85;57.32;100833.34;1736953;82;20321;-75
2021/05/06 08:53:45;;;;;;;;;;;;;;;19.66;57.37;100833.56;1736607;82;20607;-73
2021/05/06 08:56:12;;;;;;;;;;;;;;;19.56;57.73;100836.81;1736932;82;20246;-76
2021/05/06 08:58:40;;;;;;;;;;;;;;;19.56;57.44;100845.51;1711877;82;21219;-75
2021/05/06 09:01:08;;;;;;;;;;;;;;;19.58;57.37;100846.69;1737074;82;20155;-83
2021/05/06 09:03:39;;;;;;;;;;;;;;;19.47;57.66;100840.69;1737103;82;20281;-78
2021/05/06 09:06:18;;;;;;;;;;;;;;;19.39;58.13;100852.94;1738602;82;20226;-77
2021/05/06 09:08:49;;;;;;;;;;;;;;;19.30;58.62;100853.86;1739014;82;20509;-76
2021/05/06 09:11:17;;;;;;;;;;;;;;;19.24;58.80;100853.96;1740723;82;21039;-74
2021/05/06 09:13:45;;;;;;;;;;;;;;;19.26;59.50;100850.70;1740446;82;20292;-75
2021/05/06 09:16:13;;;;;;;;;;;;;;;19.35;59.59;100856.85;1738645;82;20222;-77
2021/05/06 09:18:43;;;;;;;;;;;;;;;19.46;59.03;100859.28;1738806;82;20793;-78
2021/05/06 09:21:28;;;;;;;;;;;;;;;19.44;58.06;100854.16;1738958;82;20349;-78
2021/05/06 09:24:16;;;;;;;;;;;;;;;19.40;57.85;100856.75;1738678;82;21204;-78
2021/05/06 09:26:46;;;;;;;;;;;;;;;19.57;57.95;100860.81;1738671;82;20142;-78
2021/05/06 09:29:31;;;;;;;;;;;;;;;19.81;57.05;100863.63;1739722;82;20195;-78
2021/05/06 09:32:11;;;;;;;;;;;;;;;19.93;56.73;100856.63;1735907;82;20237;-77
2021/05/06 09:34:39;;;;;;;;;;;;;;;20.00;56.49;100848.92;1729809;82;20521;-76
2021/05/06 09:37:09;;;;;;;;;;;;;;;19.99;55.43;100848.09;1738323;82;22221;-75
2021/05/06 09:39:40;;;;;;;;;;;;;;;19.88;55.58;100856.73;1738079;82;20575;-79
2021/05/06 09:42:10;;;;;;;;;;;;;;;19.72;56.02;100860.62;1738132;82;20160;-73
2021/05/06 09:47:37;;;;;;;;;;;;;;;19.73;56.72;100860.92;1738345;82;20278;-77
2021/05/06 09:53:22;;;;;;;;;;;;;;;19.95;56.30;100855.96;1737752;82;20234;-75
2021/05/06 09:55:57;;;;;;;;;;;;;;;20.21;56.34;100859.05;1694777;84;32544;-76
2021/05/06 09:58:31;;;;;;;;;;;;;;;20.32;55.25;100862.76;1667931;85;20228;-77
2021/05/06 10:01:10;;;;;;;;;;;;;;;20.51;54.60;100864.64;1687708;85;20239;-81
2021/05/06 10:03:39;;;;;;;;;;;;;;;21.01;54.01;100869.02;1687867;85;21489;-74
2021/05/06 10:06:16;;;;;;;;;;;;;;;21.70;52.06;100869.05;1688163;85;20270;-76
2021/05/06 10:08:47;;;;;;;;;;;;;;;21.94;50.92;100871.65;1737728;82;20496;-73
2021/05/06 10:11:16;;;;;;;;;;;;;;;22.23;50.18;100869.73;1747522;82;20270;-76
2021/05/06 10:13:48;;;;;;;;;;;;;;;22.58;45.37;100875.86;1748316;82;20234;-71
2021/05/06 10:16:17;;;;;;;;;;;;;;;22.61;45.43;100876.34;1717612;83;21355;-75
2021/05/06 10:18:45;;;;;;;;;;;;;;;22.58;45.66;100878.01;1747790;82;20569;-71
2021/05/06 10:21:15;;;;;;;;;;;;;;;22.55;44.64;100888.94;1747970;82;20587;-74
2021/05/06 10:23:48;;;;;;;;;;;;;;;22.07;46.08;100888.64;1730585;82;20255;-76
2021/05/06 10:26:18;;;;;;;;;;;;;;;21.88;47.75;100885.52;1726307;82;20206;-77
2021/05/06 10:28:46;;;;;;;;;;;;;;;22.26;47.25;100893.19;1741955;82;22101;-74
2021/05/06 10:31:15;;;;;;;;;;;;;;;22.29;46.18;100888.88;1732275;82;20248;-74
2021/05/06 10:33:43;;;;;;;;;;;;;;;22.18;46.55;100895.88;1729165;82;20216;-74
2021/05/06 10:36:13;;;;;;;;;;;;;;;22.62;46.09;100891.72;1742411;82;20226;-78
2021/05/06 10:38:43;;;;;;;;;;;;;;;23.14;44.36;100887.92;1739237;82;20226;-74
2021/05/06 10:41:38;;;;;;;;;;;;;;;23.07;44.35;100893.09;1748009;82;22145;-76
2021/05/06 10:44:09;;;;;;;;;;;;;;;23.29;44.15;100889.31;1747924;82;20229;-74
2021/05/06 10:47:03;;;;;;;;;;;;;;;23.79;42.21;100897.50;1747884;82;20278;-77
2021/05/06 10:49:42;;;;;;;;;;;;;;;24.02;41.11;100895.60;1747972;82;20227;-76
2021/05/06 10:52:11;;;;;;;;;;;;;;;24.13;41.81;100896.98;1747776;82;20134;-76
2021/05/06 10:54:53;;;;;;;;;;;;;;;24.35;41.83;100890.75;1747714;82;21734;-76
2021/05/06 11:01:25;;;;;;;;;;;;;;;23.92;41.65;100899.02;1717444;82;20240;-77
2021/05/06 11:04:04;;;;;;;;;;;;;;;23.83;42.12;100897.46;1728332;82;21047;-77
2021/05/06 11:06:37;;;;;;;;;;;;;;;23.92;42.96;100895.05;1728283;83;20219;-71
2021/05/06 11:13:00;;;;;;;;;;;;;;;24.83;41.49;100889.30;1728417;83;20187;-74
2021/05/06 11:15:31;;;;;;;;;;;;;;;25.38;39.56;100891.77;1728252;83;20502;-73
2021/05/06 11:21:56;;;;;;;;;;;;;;;24.52;40.40;100887.39;1728541;82;20263;-75
2021/05/06 11:24:42;;;;;;;;;;;;;;;25.06;39.79;100883.82;1728419;82;21210;-80
2021/05/06 11:27:15;;;;;;;;;;;;;;;25.40;38.10;100889.23;1728354;83;20219;-75
2021/05/06 11:29:46;;;;;;;;;;;;;;;25.69;37.29;100890.41;1728729;83;20226;-78
2021/05/06 11:32:33;;;;;;;;;;;;;;;25.16;39.50;100890.47;1728758;83;20237;-81
2021/05/06 11:35:02;;;;;;;;;;;;;;;25.16;38.98;100889.14;1728597;83;20548;-78
2021/05/06 11:37:31;;;;;;;;;;;;;;;25.04;39.47;100890.66;1728494;83;21202;-72
2021/05/06 11:40:02;;;;;;;;;;;;;;;25.08;40.09;100889.78;1728275;83;20242;-74
2021/05/06 11:42:37;;;;;;;;;;;;;;;24.82;39.84;100889.51;1728356;83;20497;-73
2021/05/06 11:45:23;;;;;;;;;;;;;;;24.63;40.51;100886.92;1728099;83;20223;-76
2021/05/06 11:47:53;;;;;;;;;;;;;;;24.20;40.64;100888.63;1728803;83;20243;-76
2021/05/06 11:50:24;;;;;;;;;;;;;;;23.77;42.63;100893.38;1728669;83;20698;-82
2021/05/06 11:52:55;;;;;;;;;;;;;;;23.98;42.33;100893.48;1728760;82;20227;-77
2021/05/06 11:55:39;;;;;;;;;;;;;;;24.02;42.93;100890.30;1728748;83;20244;-72
2021/05/06 11:58:15;;;;;;;;;;;;;;;23.96;42.44;100885.73;1728495;82;20325;-76
2021/05/06 12:00:46;;;;;;;;;;;;;;;24.04;42.38;100879.50;1722721;83;20256;-72
2021/05/06 12:03:15;;;;;;;;;;;;;;;24.35;41.09;100883.29;1726298;83;21138;-81
2021/05/06 12:05:54;;;;;;;;;;;;;;;24.16;41.84;100881.53;1725716;83;20365;-74
2021/05/06 12:08:25;;;;;;;;;;;;;;;24.16;42.21;100881.53;1725550;82;20221;-78
2021/05/06 12:10:56;;;;;;;;;;;;;;;24.10;41.12;100881.41;1725733;83;20489;-74
2021/05/06 12:13:35;;;;;;;;;;;;;;;24.17;41.67;100887.17;1725647;83;20243;-75
2021/05/06 12:16:12;;;;;;;;;;;;;;;24.69;40.66;100880.87;1726001;83;21200;-75
2021/05/06 12:18:41;;;;;;;;;;;;;;;25.20;39.90;100874.98;1725734;82;20211;-77
2021/05/06 12:21:10;;;;;;;;;;;;;;;25.45;39.51;100865.58;1725821;83;20219;-73
2021/05/06 12:23:42;;;;;;;;;;;;;;;25.96;37.97;100866.16;1693654;84;20583;-76
2021/05/06 12:26:18;;;;;;;;;;;;;;;26.39;36.11;100867.32;1666263;86;20307;-79
2021/05/06 12:28:47;;;;;;;;;;;;;;;26.87;37.00;100860.12;1667215;86;21215;-76
2021/05/06 12:31:15;;;;;;;;;;;;;;;27.14;35.79;100860.44;1667126;86;20525;-74
2021/05/06 12:33:42;;;;;;;;;;;;;;;26.60;35.36;100860.02;1666990;86;20248;-76
2021/05/06 12:36:14;;;;;;;;;;;;;;;26.03;36.46;100858.22;1666876;85;20589;-74
2021/05/06 12:38:44;;;;;;;;;;;;;;;25.54;37.80;100852.48;1666976;86;20300;-77
2021/05/06 12:41:14;;;;;;;;;;;;;;;25.39;38.75;100849.08;1667081;85;22402;-77
2021/05/06 12:43:49;;;;;;;;;;;;;;;25.50;37.60;100857.05;1666908;86;20247;-72
2021/05/06 12:46:24;;;;;;;;;;;;;;;25.65;37.39;100853.80;1666748;86;20161;-75
2021/05/06 12:48:57;;;;;;;;;;;;;;;25.55;37.48;100851.48;1667063;86;20868;-74
2021/05/06 12:51:34;;;;;;;;;;;;;;;25.24;38.42;100843.84;1666842;86;20303;-74
2021/05/06 12:54:07;;;;;;;;;;;;;;;24.96;39.85;100844.31;1666449;86;21013;-73
2021/05/06 12:56:41;;;;;;;;;;;;;;;24.87;40.44;100838.81;1666974;85;20531;-76
2021/05/06 12:59:24;;;;;;;;;;;;;;;24.78;41.19;100832.45;1667291;86;20402;-75
2021/05/06 13:01:52;;;;;;;;;;;;;;;24.90;40.76;100825.66;1667086;86;20299;-73
2021/05/06 13:04:21;;;;;;;;;;;;;;;25.00;39.30;100820.35;1667136;86;20506;-72
2021/05/06 13:07:02;;;;;;;;;;;;;;;25.04;41.26;100824.78;1667110;86;21398;-75
2021/05/06 13:09:35;;;;;;;;;;;;;;;25.22;40.90;100832.59;1666897;86;20239;-77
2021/05/06 13:12:14;;;;;;;;;;;;;;;25.29;40.40;100837.96;1666630;86;20506;-75
2021/05/06 13:14:45;;;;;;;;;;;;;;;25.17;40.21;100848.80;1666915;86;20931;-75
2021/05/06 13:17:34;;;;;;;;;;;;;;;24.87;40.26;100848.10;1667028;86;20562;-74
2021/05/06 13:20:22;;;;;;;;;;;;;;;24.74;40.33;100854.07;1666806;86;21471;-77
2021/05/06 13:23:03;;;;;;;;;;;;;;;24.79;40.24;100847.38;1667069;86;20793;-74
2021/05/06 13:25:44;;;;;;;;;;;;;;;24.81;40.77;100846.67;1660254;85;20244;-81
2021/05/06 13:28:18;;;;;;;;;;;;;;;24.65;40.59;100845.91;1667016;86;20418;-76
2021/05/06 13:30:47;;;;;;;;;;;;;;;24.35;41.24;100848.81;1666935;86;20588;-76
2021/05/06 13:33:20;;;;;;;;;;;;;;;24.06;42.38;100850.98;1666972;86;20789;-76
2021/05/06 13:36:11;;;;;;;;;;;;;;;23.85;42.69;100853.03;1665000;86;20144;-77
2021/05/06 13:38:54;;;;;;;;;;;;;;;23.63;44.22;100864.03;1666941;86;20224;-74
2021/05/06 13:41:34;;;;;;;;;;;;;;;23.36;44.28;100860.59;1637780;86;21188;-74
2021/05/06 13:44:05;;;;;;;;;;;;;;;23.09;45.31;100862.49;1667141;86;20164;-73
2021/05/06 13:46:34;;;;;;;;;;;;;;;22.91;45.28;100861.97;1667169;86;21223;-79
2021/05/06 13:49:03;;;;;;;;;;;;;;;22.71;45.38;100865.56;1667100;86;20744;-74
2021/05/06 13:51:32;;;;;;;;;;;;;;;22.54;45.62;100867.94;1666685;85;20181;-75
2021/05/06 13:54:00;;;;;;;;;;;;;;;22.47;46.35;100869.62;1666913;86;20235;-75
2021/05/06 13:56:28;;;;;;;;;;;;;;;22.43;45.36;100865.70;1666808;86;20235;-73
2021/05/06 13:58:57;;;;;;;;;;;;;;;22.32;45.19;100864.73;1666936;86;21225;-74
2021/05/06 14:01:24;;;;;;;;;;;;;;;22.32;45.52;100855.48;1666884;86;20140;-73
2021/05/06 14:03:52;;;;;;;;;;;;;;;22.34;45.29;100858.28;1670294;86;20226;-76
2021/05/06 14:06:21;;;;;;;;;;;;;;;22.31;45.85;100863.08;1672357;86;20255;-74
2021/05/06 14:08:51;;;;;;;;;;;;;;;22.22;46.49;100856.19;1672539;86;20244;-74
2021/05/06 14:11:19;;;;;;;;;;;;;;;22.10;47.49;100865.83;1672539;86;21232;-74
2021/05/06 14:13:48;;;;;;;;;;;;;;;21.99;46.81;100870.14;1666725;86;20152;-78
2021/05/06 14:16:18;;;;;;;;;;;;;;;21.86;46.58;100870.30;1672314;86;20192;-77
2021/05/06 14:18:46;;;;;;;;;;;;;;;21.70;46.70;100869.84;1672243;86;20230;-78
2021/05/06 14:21:20;;;;;;;;;;;;;;;21.56;47.49;100882.42;1672356;86;20249;-74
2021/05/06 14:23:46;;;;;;;;;;;;;;;21.43;47.63;100887.38;1672461;86;21285;-77
2021/05/06 14:26:19;;;;;;;;;;;;;;;21.21;50.06;100903.88;1672365;85;20498;-77
2021/05/06 14:28:48;;;;;;;;;;;;;;;20.24;64.60;100919.34;1672314;86;20309;-74
2021/05/06 14:31:17;;;;;;;;;;;;;;;17.84;77.55;100949.36;1672277;85;20259;-74
2021/05/06 14:33:45;;;;;;;;;;;;;;;16.35;89.01;100978.80;1672440;86;20223;-69
2021/05/06 14:36:13;;;;;;;;;;;;;;;15.48;95.69;100994.85;1672278;86;21153;-74
2021/05/06 14:38:42;;;;;;;;;;;;;;;15.05;100.00;100994.00;1672137;86;20230;-71
2021/05/06 14:41:10;;;;;;;;;;;;;;;15.01;100.00;101001.25;1672281;86;20148;-72
2021/05/06 14:43:38;;;;;;;;;;;;;;;14.99;100.00;100996.63;1672142;86;20231;-68
2021/05/06 14:46:07;;;;;;;;;;;;;;;15.04;100.00;101006.70;1672243;86;20279;-71
2021/05/06 14:48:35;;;;;;;;;;;;;;;15.04;100.00;101011.92;1672147;86;22158;-71
2021/05/06 14:51:04;;;;;;;;;;;;;;;15.01;100.00;101015.63;1672444;86;20538;-72
2021/05/06 14:53:32;;;;;;;;;;;;;;;15.01;100.00;101024.77;1672227;86;20144;-72
2021/05/06 14:56:02;;;;;;;;;;;;;;;14.97;100.00;101033.80;1672145;86;20294;-74
2021/05/06 14:58:31;;;;;;;;;;;;;;;14.82;100.00;101040.22;1672133;85;20310;-72
2021/05/06 15:00:58;;;;;;;;;;;;;;;14.68;100.00;101036.52;1672267;86;21267;-72
2021/05/06 15:03:28;;;;;;;;;;;;;;;14.49;100.00;101042.80;1672021;86;20566;-77
2021/05/06 15:05:56;;;;;;;;;;;;;;;14.37;100.00;101046.34;1672252;86;20282;-72
2021/05/06 15:08:25;;;;;;;;;;;;;;;14.30;100.00;101052.47;1672128;86;20338;-72
2021/05/06 15:10:54;;;;;;;;;;;;;;;14.19;100.00;101050.69;1672168;85;20248;-69
2021/05/06 15:13:22;;;;;;;;;;;;;;;14.08;100.00;101057.63;1672173;85;20513;-75
2021/05/06 15:15:50;;;;;;;;;;;;;;;13.99;100.00;101055.24;1672094;86;20251;-75
2021/05/06 15:18:17;;;;;;;;;;;;;;;13.91;100.00;101056.27;1672232;86;20231;-72
2021/05/06 15:20:45;;;;;;;;;;;;;;;13.87;100.00;101048.80;1672378;85;20221;-70
2021/05/06 15:23:14;;;;;;;;;;;;;;;13.74;100.00;101039.27;1672313;86;20235;-72
2021/05/06 15:25:42;;;;;;;;;;;;;;;13.72;100.00;101037.72;1672263;86;21557;-71
2021/05/06 15:28:13;;;;;;;;;;;;;;;13.65;100.00;101039.09;1672027;86;20231;-72
2021/05/06 15:30:41;;;;;;;;;;;;;;;13.68;100.00;101037.57;1672292;85;20195;-73
2021/05/06 15:33:12;;;;;;;;;;;;;;;13.82;100.00;101024.80;1672230;86;20248;-72
2021/05/06 15:35:42;;;;;;;;;;;;;;;14.03;100.00;101009.72;1672148;86;20248;-73
2021/05/06 15:38:09;;;;;;;;;;;;;;;14.20;100.00;100994.91;1672213;86;22093;-74
2021/05/06 15:40:40;;;;;;;;;;;;;;;14.35;100.00;100996.04;1672138;86;20568;-75
2021/05/06 15:43:11;;;;;;;;;;;;;;;14.50;100.00;101004.00;1672093;86;20231;-76
2021/05/06 15:45:43;;;;;;;;;;;;;;;14.66;100.00;100994.87;1672219;86;21124;-74
2021/05/06 15:48:10;;;;;;;;;;;;;;;14.78;100.00;100986.06;1671934;86;20230;-73
2021/05/06 15:50:39;;;;;;;;;;;;;;;14.93;100.00;100983.22;1672198;86;21211;-72
2021/05/06 15:53:07;;;;;;;;;;;;;;;15.03;100.00;100981.03;1672098;85;20243;-73
2021/05/06 15:55:35;;;;;;;;;;;;;;;15.11;100.00;100977.35;1672281;86;20506;-72
2021/05/06 15:58:08;;;;;;;;;;;;;;;15.19;100.00;100968.87;1672041;85;20888;-73
2021/05/06 16:00:37;;;;;;;;;;;;;;;15.28;100.00;100961.63;1671671;86;20263;-71
2021/05/06 16:03:14;;;;;;;;;;;;;;;15.31;100.00;100966.14;1671564;86;22255;-71
2021/05/06 16:05:42;;;;;;;;;;;;;;;15.32;100.00;100967.77;1666344;86;20126;-71
2021/05/06 16:08:08;;;;;;;;;;;;;;;15.33;100.00;100967.30;1666996;86;20230;-71
2021/05/06 16:10:37;;;;;;;;;;;;;;;15.35;100.00;100967.52;1666997;86;20271;-71
2021/05/06 16:13:05;;;;;;;;;;;;;;;15.40;100.00;100972.87;1666916;86;20228;-71
2021/05/06 16:15:33;;;;;;;;;;;;;;;15.52;100.00;100965.36;1666869;86;21641;-71
2021/05/06 16:18:01;;;;;;;;;;;;;;;15.69;100.00;100972.19;1666999;85;20157;-71
2021/05/06 16:20:32;;;;;;;;;;;;;;;15.85;100.00;100971.28;1666816;86;20252;-71